createdAt,value
2022-09-30T00:01:47.123Z,96617.00
2022-09-30T00:04:18.754Z,96605.00
2022-09-30T00:06:47.392Z,96618.00
2022-09-30T00:09:16.137Z,96605.00
2022-09-30T00:11:45.645Z,96598.00
2022-09-30T00:14:18.697Z,96597.00
2022-09-30T00:16:47.550Z,96602.00
2022-09-30T00:19:16.329Z,96609.00
2022-09-30T00:21:44.777Z,96598.00
2022-09-30T00:24:13.028Z,96602.00
2022-09-30T00:26:41.338Z,96619.00
2022-09-30T00:29:11.089Z,96608.00
2022-09-30T00:31:40.760Z,96611.00
2022-09-30T00:34:11.432Z,96612.00
2022-09-30T00:36:44.471Z,96596.00
2022-09-30T00:39:16.471Z,96611.00
2022-09-30T00:41:46.134Z,96620.00
2022-09-30T00:44:54.731Z,96619.00
2022-09-30T00:47:43.404Z,96621.00
2022-09-30T00:50:38.256Z,96627.00
2022-09-30T00:53:18.211Z,96639.00
2022-09-30T00:55:55.512Z,96647.00
2022-09-30T00:58:31.491Z,96630.00
2022-09-30T01:01:02.764Z,96646.00
2022-09-30T01:03:36.636Z,96639.00
2022-09-30T01:06:05.323Z,96635.00
2022-09-30T01:08:37.276Z,96651.00
2022-09-30T01:11:08.356Z,96646.00
2022-09-30T01:13:40.146Z,96640.00
2022-09-30T01:16:30.044Z,96656.00
2022-09-30T01:19:25.445Z,96650.00
2022-09-30T01:22:21.413Z,96662.00
2022-09-30T01:25:18.766Z,96660.00
2022-09-30T01:28:17.392Z,96653.00
2022-09-30T01:31:12.081Z,96640.00
2022-09-30T01:33:51.238Z,96644.00
2022-09-30T01:36:43.227Z,96647.00
2022-09-30T01:39:28.063Z,96660.00
2022-09-30T01:42:10.722Z,96665.00
2022-09-30T01:44:51.029Z,96654.00
2022-09-30T01:47:27.911Z,96660.00
2022-09-30T01:50:04.174Z,96667.00
2022-09-30T01:52:41.351Z,96669.00
2022-09-30T01:55:19.832Z,96666.00
2022-09-30T01:57:57.580Z,96666.00
2022-09-30T02:00:27.537Z,96663.00
2022-09-30T02:03:03.280Z,96659.00
2022-09-30T02:05:41.081Z,96657.00
2022-09-30T02:08:17.750Z,96658.00
2022-09-30T02:10:53.021Z,96657.00
2022-09-30T02:13:35.925Z,96655.00
2022-09-30T02:16:13.829Z,96657.00
2022-09-30T02:18:48.668Z,96667.00
2022-09-30T02:21:23.953Z,96687.00
2022-09-30T02:24:01.665Z,96676.00
2022-09-30T02:26:35.300Z,96682.00
2022-09-30T02:29:10.107Z,96684.00
2022-09-30T02:31:43.869Z,96674.00
2022-09-30T02:34:20.592Z,96658.00
2022-09-30T02:36:58.164Z,96679.00
2022-09-30T02:39:35.150Z,96686.00
2022-09-30T02:42:12.454Z,96680.00
2022-09-30T02:44:41.999Z,96693.00
2022-09-30T02:47:17.326Z,96679.00
2022-09-30T02:49:54.728Z,96688.00
2022-09-30T02:52:31.399Z,96692.00
2022-09-30T02:55:16.045Z,96711.00
2022-09-30T02:57:58.629Z,96707.00
2022-09-30T03:00:27.723Z,96690.00
2022-09-30T03:03:05.374Z,96701.00
2022-09-30T03:05:35.174Z,96701.00
2022-09-30T03:08:03.976Z,96705.00
2022-09-30T03:10:34.077Z,96714.00
2022-09-30T03:13:29.071Z,96703.00
2022-09-30T03:16:15.020Z,96711.00
2022-09-30T03:19:04.830Z,96722.00
2022-09-30T03:21:55.577Z,96717.00
2022-09-30T03:24:56.625Z,96717.00
2022-09-30T03:27:40.201Z,96740.00
2022-09-30T03:30:16.068Z,96723.00
2022-09-30T03:33:11.334Z,96730.00
2022-09-30T03:35:50.162Z,96721.00
2022-09-30T03:38:37.905Z,96719.00
2022-09-30T03:41:17.994Z,96730.00
2022-09-30T03:43:51.952Z,96742.00
2022-09-30T03:46:27.266Z,96744.00
2022-09-30T03:49:01.128Z,96755.00
2022-09-30T03:51:31.106Z,96744.00
2022-09-30T03:54:01.158Z,96748.00
2022-09-30T03:56:31.774Z,96743.00
2022-09-30T03:58:59.916Z,96746.00
2022-09-30T04:01:28.032Z,96740.00
2022-09-30T04:03:56.606Z,96750.00
2022-09-30T04:06:26.230Z,96751.00
2022-09-30T04:08:54.863Z,96745.00
2022-09-30T04:11:24.316Z,96758.00
2022-09-30T04:13:52.433Z,96755.00
2022-09-30T04:16:20.564Z,96761.00
2022-09-30T04:18:48.859Z,96764.00
2022-09-30T04:21:17.596Z,96754.00
2022-09-30T04:23:46.010Z,96750.00
2022-09-30T04:26:17.345Z,96758.00
2022-09-30T04:28:47.268Z,96766.00
2022-09-30T04:31:17.678Z,96758.00
2022-09-30T04:33:46.173Z,96758.00
2022-09-30T04:36:14.322Z,96771.00
2022-09-30T04:38:42.730Z,96771.00
2022-09-30T04:41:17.921Z,96787.00
2022-09-30T04:43:49.258Z,96786.00
2022-09-30T04:46:19.612Z,96775.00
2022-09-30T04:48:48.709Z,96768.00
2022-09-30T04:51:19.665Z,96779.00
2022-09-30T04:53:49.013Z,96796.00
2022-09-30T04:56:18.255Z,96804.00
2022-09-30T04:58:47.804Z,96798.00
2022-09-30T05:01:18.855Z,96810.00
2022-09-30T05:03:47.377Z,96813.00
2022-09-30T05:06:15.697Z,96801.00
2022-09-30T05:08:46.087Z,96798.00
2022-09-30T05:11:18.482Z,96798.00
2022-09-30T05:13:50.867Z,96798.00
2022-09-30T05:16:19.458Z,96815.00
2022-09-30T05:18:47.832Z,96796.00
2022-09-30T05:21:19.521Z,96799.00
2022-09-30T05:23:48.337Z,96807.00
2022-09-30T05:26:16.963Z,96806.00
2022-09-30T05:28:45.113Z,96811.00
2022-09-30T05:31:14.803Z,96810.00
2022-09-30T05:33:43.027Z,96815.00
2022-09-30T05:36:16.131Z,96815.00
2022-09-30T05:38:44.741Z,96815.00
2022-09-30T05:41:15.457Z,96820.00
2022-09-30T05:43:47.584Z,96829.00
2022-09-30T05:46:18.457Z,96829.00
2022-09-30T05:48:47.258Z,96834.00
2022-09-30T05:51:18.231Z,96839.00
2022-09-30T05:53:46.452Z,96850.00
2022-09-30T05:56:16.473Z,96852.00
2022-09-30T05:58:44.741Z,96855.00
2022-09-30T06:01:16.498Z,96859.00
2022-09-30T06:03:46.595Z,96869.00
2022-09-30T06:06:16.147Z,96877.00
2022-09-30T06:08:44.823Z,96881.00
2022-09-30T06:11:15.641Z,96875.00
2022-09-30T06:13:47.255Z,96881.00
2022-09-30T06:16:18.570Z,96887.00
2022-09-30T06:18:47.280Z,96891.00
2022-09-30T06:21:17.575Z,96886.00
2022-09-30T06:23:46.507Z,96880.00
2022-09-30T06:26:15.645Z,96886.00
2022-09-30T06:28:44.655Z,96875.00
2022-09-30T06:31:13.412Z,96872.00
2022-09-30T06:33:43.413Z,96871.00
2022-09-30T06:36:11.942Z,96874.00
2022-09-30T06:38:40.449Z,96858.00
2022-09-30T06:41:09.701Z,96878.00
2022-09-30T06:43:51.130Z,96880.00
2022-09-30T06:46:30.971Z,96870.00
2022-09-30T06:49:11.324Z,96879.00
2022-09-30T06:51:41.929Z,96901.00
2022-09-30T06:54:10.513Z,96896.00
2022-09-30T06:56:38.615Z,96902.00
2022-09-30T06:59:07.077Z,96917.00
2022-09-30T07:01:35.254Z,96913.00
2022-09-30T07:04:09.497Z,96906.00
2022-09-30T07:06:38.760Z,96904.00
2022-09-30T07:09:08.003Z,96905.00
2022-09-30T07:11:37.615Z,96909.00
2022-09-30T07:14:06.442Z,96934.00
2022-09-30T07:16:35.630Z,96933.00
2022-09-30T07:19:08.920Z,96927.00
2022-09-30T07:21:37.114Z,96922.00
2022-09-30T07:24:05.984Z,96932.00
2022-09-30T07:26:34.530Z,96952.00
2022-09-30T07:29:02.620Z,96934.00
2022-09-30T07:31:33.446Z,96948.00
2022-09-30T07:34:06.954Z,96962.00
2022-09-30T07:36:37.003Z,96950.00
2022-09-30T07:39:09.005Z,96952.00
2022-09-30T07:41:40.229Z,96969.00
2022-09-30T07:44:13.184Z,96975.00
2022-09-30T07:46:42.307Z,96964.00
2022-09-30T07:49:20.648Z,96971.00
2022-09-30T07:51:53.533Z,96975.00
2022-09-30T07:54:25.130Z,96975.00
2022-09-30T07:57:10.881Z,96970.00
2022-09-30T07:59:42.611Z,96977.00
2022-09-30T08:02:16.730Z,96978.00
2022-09-30T08:04:47.010Z,96984.00
2022-09-30T08:07:18.312Z,96984.00
2022-09-30T08:09:46.676Z,96985.00
2022-09-30T08:12:16.046Z,96976.00
2022-09-30T08:14:44.731Z,96978.00
2022-09-30T08:17:12.817Z,96986.00
2022-09-30T08:19:44.020Z,96989.00
2022-09-30T08:22:15.034Z,96998.00
2022-09-30T08:24:43.206Z,97001.00
2022-09-30T08:27:11.394Z,96993.00
2022-09-30T08:29:57.322Z,96991.00
2022-09-30T08:32:31.154Z,96999.00
2022-09-30T08:34:59.528Z,97008.00
2022-09-30T08:37:29.312Z,97017.00
2022-09-30T08:39:57.645Z,97015.00
2022-09-30T08:42:55.561Z,97015.00
2022-09-30T08:45:38.377Z,97025.00
2022-09-30T08:48:26.347Z,97012.00
2022-09-30T08:51:08.960Z,97020.00
2022-09-30T08:53:44.732Z,97026.00
2022-09-30T08:56:21.770Z,97028.00
2022-09-30T08:58:55.005Z,97019.00
2022-09-30T09:01:32.569Z,97017.00
2022-09-30T09:04:03.691Z,97012.00
2022-09-30T09:06:44.602Z,97019.00
2022-09-30T09:09:35.801Z,97026.00
2022-09-30T09:12:23.695Z,97021.00
2022-09-30T09:15:16.082Z,97026.00
2022-09-30T09:18:22.638Z,97034.00
2022-09-30T09:20:57.769Z,97036.00
2022-09-30T09:23:28.074Z,97032.00
2022-09-30T09:25:58.130Z,97042.00
2022-09-30T09:28:36.933Z,97025.00
2022-09-30T09:31:06.467Z,97027.00
2022-09-30T09:33:40.388Z,97037.00
2022-09-30T09:36:35.027Z,97033.00
2022-09-30T09:39:35.547Z,97038.00
2022-09-30T09:42:19.956Z,97025.00
2022-09-30T09:44:58.203Z,97044.00
2022-09-30T09:47:26.300Z,97032.00
2022-09-30T09:49:59.880Z,97039.00
2022-09-30T09:52:50.300Z,97031.00
2022-09-30T09:55:23.346Z,97029.00
2022-09-30T10:01:06.273Z,97044.00
2022-09-30T10:03:38.009Z,97044.00
2022-09-30T10:06:10.099Z,97043.00
2022-09-30T10:08:41.249Z,97049.00
2022-09-30T10:11:22.542Z,97045.00
2022-09-30T10:13:53.780Z,97049.00
2022-09-30T10:16:32.908Z,97052.00
2022-09-30T10:19:03.977Z,97047.00
2022-09-30T10:21:35.474Z,97048.00
2022-09-30T10:24:26.273Z,97043.00
2022-09-30T10:26:54.435Z,97037.00
2022-09-30T10:29:31.854Z,97050.00
2022-09-30T10:32:07.680Z,97047.00
2022-09-30T10:34:41.383Z,97046.00
2022-09-30T10:37:15.957Z,97044.00
2022-09-30T10:39:52.779Z,97048.00
2022-09-30T10:42:26.616Z,97040.00
2022-09-30T10:44:58.707Z,97048.00
2022-09-30T10:47:35.513Z,97044.00
2022-09-30T10:50:09.988Z,97042.00
2022-09-30T10:52:44.546Z,97049.00
2022-09-30T10:55:32.599Z,97050.00
2022-09-30T10:58:26.369Z,97050.00
2022-09-30T11:01:05.089Z,97044.00
2022-09-30T11:03:46.222Z,97049.00
2022-09-30T11:06:16.468Z,97047.00
2022-09-30T11:08:56.347Z,97051.00
2022-09-30T11:11:30.589Z,97042.00
2022-09-30T11:14:06.174Z,97047.00
2022-09-30T11:16:47.490Z,97040.00
2022-09-30T11:19:27.902Z,97037.00
2022-09-30T11:22:04.881Z,97054.00
2022-09-30T11:24:41.285Z,97053.00
2022-09-30T11:27:23.748Z,97043.00
2022-09-30T11:30:04.289Z,97039.00
2022-09-30T11:32:51.033Z,97051.00
2022-09-30T11:35:47.134Z,97050.00
2022-09-30T11:38:41.151Z,97057.00
2022-09-30T11:41:19.562Z,97051.00
2022-09-30T11:44:02.836Z,97059.00
2022-09-30T11:47:11.730Z,97043.00
2022-09-30T11:50:05.930Z,97047.00
2022-09-30T11:52:51.562Z,97035.00
2022-09-30T11:55:42.466Z,97039.00
2022-09-30T11:58:39.203Z,97031.00
2022-09-30T12:01:21.199Z,97037.00
2022-09-30T12:04:01.358Z,97034.00
2022-09-30T12:06:36.273Z,97034.00
2022-09-30T12:09:17.943Z,97035.00
2022-09-30T12:11:55.604Z,97033.00
2022-09-30T12:14:34.367Z,97030.00
2022-09-30T12:17:12.316Z,97031.00
2022-09-30T12:19:48.341Z,97024.00
2022-09-30T12:22:21.749Z,97033.00
2022-09-30T12:24:51.196Z,97044.00
2022-09-30T12:27:27.970Z,97044.00
2022-09-30T12:30:17.567Z,97043.00
2022-09-30T12:33:28.208Z,97048.00
2022-09-30T12:36:39.950Z,97039.00
2022-09-30T12:39:50.107Z,97044.00
2022-09-30T12:43:14.058Z,97034.00
2022-09-30T12:46:15.931Z,97028.00
2022-09-30T12:48:51.132Z,97040.00
2022-09-30T12:51:32.714Z,97030.00
2022-09-30T12:54:06.641Z,97029.00
2022-09-30T12:56:37.566Z,97042.00
2022-09-30T12:59:09.858Z,97035.00
2022-09-30T13:01:40.550Z,97037.00
2022-09-30T13:04:29.895Z,97042.00
2022-09-30T13:07:19.580Z,97038.00
2022-09-30T13:10:30.903Z,97042.00
2022-09-30T13:13:24.540Z,97034.00
2022-09-30T13:15:56.202Z,97040.00
2022-09-30T13:19:02.267Z,97043.00
2022-09-30T13:21:32.216Z,97038.00
2022-09-30T13:24:01.690Z,97035.00
2022-09-30T13:26:46.287Z,97029.00
2022-09-30T13:29:39.756Z,97029.00
2022-09-30T13:32:10.688Z,97032.00
2022-09-30T13:34:57.918Z,97045.00
2022-09-30T13:37:36.433Z,97027.00
2022-09-30T13:40:14.637Z,97034.00
2022-09-30T13:42:54.258Z,97042.00
2022-09-30T13:45:35.715Z,97031.00
2022-09-30T13:48:16.743Z,97038.00
2022-09-30T13:50:49.968Z,97039.00
2022-09-30T13:53:30.592Z,97038.00
2022-09-30T13:56:07.418Z,97048.00
2022-09-30T13:59:16.301Z,97051.00
2022-09-30T14:02:06.035Z,97059.00
2022-09-30T14:04:55.112Z,97051.00
2022-09-30T14:07:41.070Z,97053.00
2022-09-30T14:10:29.517Z,97056.00
2022-09-30T14:13:22.254Z,97061.00
2022-09-30T14:16:33.402Z,97057.00
2022-09-30T14:19:54.678Z,97054.00
2022-09-30T14:22:27.012Z,97060.00
2022-09-30T14:24:55.341Z,97063.00
2022-09-30T14:27:53.948Z,97058.00
2022-09-30T14:30:25.204Z,97043.00
2022-09-30T14:32:58.291Z,97044.00
2022-09-30T14:35:30.450Z,97054.00
2022-09-30T14:38:03.964Z,97060.00
2022-09-30T14:40:37.070Z,97056.00
2022-09-30T14:43:11.064Z,97068.00
2022-09-30T14:45:44.127Z,97068.00
2022-09-30T14:48:19.124Z,97067.00
2022-09-30T14:50:58.310Z,97078.00
2022-09-30T14:53:31.298Z,97082.00
2022-09-30T14:56:00.907Z,97079.00
2022-09-30T14:58:31.409Z,97075.00
2022-09-30T15:01:07.997Z,97068.00
2022-09-30T15:03:40.904Z,97073.00
2022-09-30T15:06:21.202Z,97077.00
2022-09-30T15:08:53.364Z,97081.00
2022-09-30T15:11:25.944Z,97085.00
2022-09-30T15:14:05.041Z,97088.00
2022-09-30T15:16:35.581Z,97090.00
2022-09-30T15:19:04.359Z,97094.00
2022-09-30T15:21:34.806Z,97091.00
2022-09-30T15:24:07.191Z,97093.00
2022-09-30T15:26:35.788Z,97091.00
2022-09-30T15:29:05.455Z,97089.00
2022-09-30T15:31:33.982Z,97095.00
2022-09-30T15:34:06.416Z,97089.00
2022-09-30T15:36:37.805Z,97099.00
2022-09-30T15:39:20.660Z,97097.00
2022-09-30T15:41:49.781Z,97099.00
2022-09-30T15:44:38.126Z,97098.00
2022-09-30T15:47:09.361Z,97087.00
2022-09-30T15:49:49.718Z,97093.00
2022-09-30T15:52:39.578Z,97088.00
2022-09-30T15:55:43.170Z,97096.00
2022-09-30T15:58:38.743Z,97084.00
2022-09-30T16:01:24.786Z,97091.00
2022-09-30T16:03:57.105Z,97088.00
2022-09-30T16:06:35.031Z,97097.00
2022-09-30T16:09:08.610Z,97085.00
2022-09-30T16:11:45.368Z,97090.00
2022-09-30T16:14:23.764Z,97088.00
2022-09-30T16:16:55.437Z,97099.00
2022-09-30T16:19:26.219Z,97105.00
2022-09-30T16:21:55.666Z,97110.00
2022-09-30T16:24:47.885Z,97090.00
2022-09-30T16:27:32.774Z,97102.00
2022-09-30T16:30:02.739Z,97113.00
2022-09-30T16:32:41.188Z,97105.00
2022-09-30T16:35:19.666Z,97098.00
2022-09-30T16:37:49.519Z,97101.00
2022-09-30T16:40:23.020Z,97116.00
2022-09-30T16:42:54.920Z,97105.00
2022-09-30T16:45:24.142Z,97090.00
2022-09-30T16:47:52.459Z,97093.00
2022-09-30T16:50:32.604Z,97101.00
2022-09-30T16:53:00.767Z,97103.00
2022-09-30T16:55:28.989Z,97093.00
2022-09-30T16:58:00.024Z,97088.00
2022-09-30T17:00:29.914Z,97101.00
2022-09-30T17:02:58.041Z,97084.00
2022-09-30T17:05:27.951Z,97093.00
2022-09-30T17:07:59.186Z,97093.00
2022-09-30T17:10:30.873Z,97099.00
2022-09-30T17:13:03.083Z,97106.00
2022-09-30T17:15:35.011Z,97107.00
2022-09-30T17:18:07.956Z,97111.00
2022-09-30T17:20:37.932Z,97116.00
2022-09-30T17:23:07.458Z,97124.00
2022-09-30T17:25:41.040Z,97114.00
2022-09-30T17:28:13.265Z,97130.00
2022-09-30T17:30:43.933Z,97129.00
2022-09-30T17:33:12.093Z,97137.00
2022-09-30T17:35:41.341Z,97133.00
2022-09-30T17:38:10.041Z,97147.00
2022-09-30T17:40:55.952Z,97121.00
2022-09-30T17:43:25.622Z,97139.00
2022-09-30T17:45:59.797Z,97142.00
2022-09-30T17:48:28.898Z,97136.00
2022-09-30T17:50:57.059Z,97152.00
2022-09-30T17:53:25.511Z,97146.00
2022-09-30T17:56:04.754Z,97136.00
2022-09-30T17:58:34.280Z,97139.00
2022-09-30T18:01:07.779Z,97144.00
2022-09-30T18:03:36.250Z,97137.00
2022-09-30T18:06:05.466Z,97142.00
2022-09-30T18:08:34.363Z,97130.00
2022-09-30T18:11:02.823Z,97132.00
2022-09-30T18:13:33.105Z,97137.00
2022-09-30T18:16:06.886Z,97143.00
2022-09-30T18:18:35.837Z,97125.00
2022-09-30T18:21:04.061Z,97146.00
2022-09-30T18:23:32.197Z,97142.00
2022-09-30T18:26:00.434Z,97148.00
2022-09-30T18:28:29.096Z,97150.00
2022-09-30T18:31:05.767Z,97128.00
2022-09-30T18:33:33.960Z,97141.00
2022-09-30T18:36:03.050Z,97141.00
2022-09-30T18:38:31.675Z,97153.00
2022-09-30T18:40:59.891Z,97154.00
2022-09-30T18:43:28.404Z,97146.00
2022-09-30T18:45:59.245Z,97146.00
2022-09-30T18:48:27.731Z,97159.00
2022-09-30T18:50:55.911Z,97154.00
2022-09-30T18:53:24.393Z,97176.00
2022-09-30T18:55:52.576Z,97160.00
2022-09-30T18:58:21.476Z,97161.00
2022-09-30T19:00:49.638Z,97162.00
2022-09-30T19:03:19.326Z,97165.00
2022-09-30T19:05:47.732Z,97148.00
2022-09-30T19:08:15.911Z,97148.00
2022-09-30T19:10:44.247Z,97148.00
2022-09-30T19:13:12.741Z,97142.00
2022-09-30T19:15:41.276Z,97144.00
2022-09-30T19:18:12.075Z,97140.00
2022-09-30T19:20:41.917Z,97134.00
2022-09-30T19:23:11.170Z,97130.00
2022-09-30T19:25:40.000Z,97148.00
2022-09-30T19:28:08.269Z,97150.00
2022-09-30T19:30:41.946Z,97148.00
2022-09-30T19:33:10.197Z,97134.00
2022-09-30T19:35:40.930Z,97146.00
2022-09-30T19:38:12.295Z,97151.00
2022-09-30T19:40:40.555Z,97154.00
2022-09-30T19:43:08.674Z,97149.00
2022-09-30T19:45:36.883Z,97142.00
2022-09-30T19:48:05.409Z,97149.00
2022-09-30T19:50:36.726Z,97152.00
2022-09-30T19:53:04.863Z,97161.00
2022-09-30T19:55:45.684Z,97167.00
2022-09-30T19:58:17.563Z,97160.00
2022-09-30T20:00:54.276Z,97178.00
2022-09-30T20:03:22.391Z,97165.00
2022-09-30T20:05:51.185Z,97164.00
2022-09-30T20:08:19.437Z,97171.00
2022-09-30T20:10:49.017Z,97177.00
2022-09-30T20:13:17.274Z,97172.00
2022-09-30T20:15:53.386Z,97186.00
2022-09-30T20:18:22.101Z,97184.00
2022-09-30T20:20:50.460Z,97183.00
2022-09-30T20:23:19.268Z,97184.00
2022-09-30T20:25:48.969Z,97178.00
2022-09-30T20:28:17.210Z,97184.00
2022-09-30T20:30:45.822Z,97177.00
2022-09-30T20:33:17.306Z,97170.00
2022-09-30T20:35:45.744Z,97153.00
2022-09-30T20:38:16.577Z,97162.00
2022-09-30T20:40:45.212Z,97169.00
2022-09-30T20:43:14.741Z,97181.00
2022-09-30T20:45:42.876Z,97152.00
2022-09-30T20:48:11.055Z,97157.00
2022-09-30T20:50:43.372Z,97154.00
2022-09-30T20:53:13.978Z,97138.00
2022-09-30T20:55:44.415Z,97147.00
2022-09-30T20:58:14.778Z,97138.00
2022-09-30T21:00:44.743Z,97135.00
2022-09-30T21:03:15.346Z,97124.00
2022-09-30T21:05:53.767Z,97127.00
2022-09-30T21:08:23.028Z,97127.00
2022-09-30T21:10:51.535Z,97126.00
2022-09-30T21:13:21.052Z,97123.00
2022-09-30T21:15:49.250Z,97136.00
2022-09-30T21:18:17.448Z,97129.00
2022-09-30T21:20:45.571Z,97133.00
2022-09-30T21:23:17.272Z,97125.00
2022-09-30T21:25:47.267Z,97128.00
2022-09-30T21:28:15.461Z,97128.00
2022-09-30T21:30:44.988Z,97136.00
2022-09-30T21:33:13.141Z,97133.00
2022-09-30T21:35:41.273Z,97158.00
2022-09-30T21:38:09.358Z,97146.00
2022-09-30T21:40:38.913Z,97146.00
2022-09-30T21:43:06.981Z,97152.00
2022-09-30T21:45:35.487Z,97150.00
2022-09-30T21:48:10.080Z,97154.00
2022-09-30T21:50:38.803Z,97157.00
2022-09-30T21:53:06.871Z,97166.00
2022-09-30T21:55:34.936Z,97172.00
2022-09-30T21:58:03.072Z,97169.00
2022-09-30T22:00:31.220Z,97180.00
2022-09-30T22:02:59.394Z,97188.00
2022-09-30T22:05:28.812Z,97199.00
2022-09-30T22:07:59.404Z,97203.00
2022-09-30T22:10:27.550Z,97208.00
2022-09-30T22:12:55.620Z,97224.00
2022-09-30T22:15:23.963Z,97212.00
2022-09-30T22:17:52.152Z,97217.00
2022-09-30T22:20:21.260Z,97221.00
2022-09-30T22:22:50.679Z,97221.00
2022-09-30T22:25:20.436Z,97231.00
2022-09-30T22:27:48.577Z,97230.00
2022-09-30T22:30:16.872Z,97216.00
2022-09-30T22:32:44.923Z,97213.00
2022-09-30T22:35:31.448Z,97204.00
2022-09-30T22:38:16.024Z,97199.00
2022-09-30T22:40:44.113Z,97217.00
2022-09-30T22:43:12.230Z,97210.00
2022-09-30T22:45:40.568Z,97207.00
2022-09-30T22:48:08.707Z,97202.00
2022-09-30T22:50:36.868Z,97204.00
2022-09-30T22:53:06.320Z,97203.00
2022-09-30T22:55:36.127Z,97208.00
2022-09-30T22:58:04.277Z,97214.00
2022-09-30T23:00:32.513Z,97208.00
2022-09-30T23:03:00.582Z,97206.00
2022-09-30T23:05:28.666Z,97202.00
2022-09-30T23:07:56.751Z,97207.00
2022-09-30T23:10:26.480Z,97218.00
2022-09-30T23:12:54.563Z,97201.00
2022-09-30T23:15:22.660Z,97203.00
2022-09-30T23:17:50.732Z,97200.00
2022-09-30T23:20:18.855Z,97194.00
2022-09-30T23:22:47.180Z,97202.00
2022-09-30T23:25:15.444Z,97194.00
2022-09-30T23:27:49.580Z,97188.00
2022-09-30T23:30:18.242Z,97200.00
2022-09-30T23:32:46.316Z,97206.00
2022-09-30T23:35:14.554Z,97205.00
2022-09-30T23:37:42.636Z,97201.00
2022-09-30T23:40:11.333Z,97203.00
2022-09-30T23:42:39.405Z,97201.00
2022-09-30T23:45:10.458Z,97201.00
2022-09-30T23:47:38.611Z,97198.00
2022-09-30T23:50:08.126Z,97202.00
2022-09-30T23:52:36.227Z,97214.00
2022-09-30T23:55:04.470Z,97205.00
2022-09-30T23:57:32.849Z,97212.00
